Time;durP1;ratioP1;P1;durP2;ratioP2;P2;SDS_P1;SDS_P2;PMS_P1;PMS_P2;Temp;Humidity;BMP_temperature;BMP_pressure;BME280_temperature;BME280_humidity;BME280_pressure;Samples;Min_cycle;Max_cycle;Signal;HPM_P1;HPM_P2
2022/05/23 00:00:55;;;;;;;5.25;3.20;;;14.70;99.90;;;;;;7393260;19;20011;-63
2022/05/23 00:03:24;;;;;;;6.10;3.38;;;14.80;99.90;;;;;;7395764;19;20023;-63
2022/05/23 00:05:56;;;;;;;7.03;3.30;;;14.50;99.90;;;;;;7392069;19;20014;-62
2022/05/23 00:08:25;;;;;;;6.30;3.42;;;14.30;99.90;;;;;;7395771;19;20015;-63
2022/05/23 00:10:54;;;;;;;6.15;3.22;;;14.70;99.90;;;;;;7392786;19;20015;-63
2022/05/23 00:13:22;;;;;;;4.38;3.10;;;14.70;99.90;;;;;;7391532;19;20025;-63
2022/05/23 00:15:52;;;;;;;7.00;3.80;;;14.60;99.90;;;;;;7391460;19;20015;-63
2022/05/23 00:18:20;;;;;;;4.75;3.40;;;14.30;99.90;;;;;;7392124;19;20496;-63
2022/05/23 00:20:49;;;;;;;3.85;3.20;;;14.70;99.90;;;;;;7393922;19;20025;-63
2022/05/23 00:23:22;;;;;;;6.60;3.50;;;14.60;99.90;;;;;;7393671;19;20030;-63
2022/05/23 00:25:51;;;;;;;7.20;3.85;;;14.50;99.90;;;;;;7400669;19;20465;-63
2022/05/23 00:28:20;;;;;;;5.65;3.33;;;14.50;99.90;;;;;;7399741;19;20014;-63
2022/05/23 00:30:49;;;;;;;5.50;3.72;;;14.50;99.90;;;;;;7399601;19;20043;-63
2022/05/23 00:36:00;;;;;;;7.68;3.38;;;14.40;99.90;;;;;;7404359;19;20014;-63
2022/05/23 00:38:31;;;;;;;8.50;3.92;;;14.40;99.90;;;;;;7398809;19;20013;-63
2022/05/23 00:43:51;;;;;;;5.68;2.80;;;14.30;99.90;;;;;;7399928;19;20016;-63
2022/05/23 00:46:20;;;;;;;6.22;3.00;;;14.20;99.90;;;;;;7399405;19;20400;-63
2022/05/23 00:48:49;;;;;;;5.60;2.85;;;14.20;99.90;;;;;;7399027;19;20014;-63
2022/05/23 00:51:19;;;;;;;8.15;3.05;;;14.20;99.90;;;;;;7400548;19;20371;-63
2022/05/23 00:53:53;;;;;;;6.93;2.90;;;14.10;99.90;;;;;;7396833;19;20018;-63
2022/05/23 00:56:31;;;;;;;6.60;2.88;;;14.00;99.90;;;;;;7401135;19;20303;-63
2022/05/23 00:59:04;;;;;;;5.72;2.88;;;14.00;99.90;;;;;;7399666;19;20031;-62
2022/05/23 01:01:37;;;;;;;7.30;3.05;;;13.90;99.90;;;;;;7400013;19;20038;-63
2022/05/23 01:04:08;;;;;;;6.53;2.65;;;13.80;99.90;;;;;;7395590;19;20024;-63
2022/05/23 01:06:38;;;;;;;4.18;2.85;;;13.90;99.90;;;;;;7398792;19;20470;-63
2022/05/23 01:09:10;;;;;;;8.25;2.90;;;13.80;99.90;;;;;;7401332;19;20435;-62
2022/05/23 01:11:39;;;;;;;5.72;2.83;;;13.80;99.90;;;;;;7398584;19;20014;-62
2022/05/23 01:14:09;;;;;;;6.70;2.92;;;13.80;99.90;;;;;;7396051;19;20376;-63
2022/05/23 01:16:40;;;;;;;5.80;2.70;;;13.80;99.90;;;;;;7401254;19;20015;-63
2022/05/23 01:19:09;;;;;;;5.47;2.70;;;13.80;99.90;;;;;;7396812;19;20014;-63
2022/05/23 01:21:51;;;;;;;4.38;2.67;;;13.90;99.90;;;;;;7398585;19;20014;-63
2022/05/23 01:24:30;;;;;;;6.63;2.72;;;13.80;99.90;;;;;;7397320;19;20018;-62
2022/05/23 01:27:03;;;;;;;7.90;3.00;;;13.80;99.90;;;;;;7400565;19;20500;-62
2022/05/23 01:29:32;;;;;;;7.97;3.28;;;13.70;99.90;;;;;;7398299;19;20014;-62
2022/05/23 01:32:01;;;;;;;5.70;2.80;;;13.70;99.90;;;;;;7398315;19;20010;-63
2022/05/23 01:34:30;;;;;;;10.40;3.30;;;13.60;99.90;;;;;;7395681;19;20026;-62
2022/05/23 01:37:02;;;;;;;5.75;2.88;;;13.60;99.90;;;;;;7400753;19;20102;-62
2022/05/23 01:39:31;;;;;;;6.13;3.00;;;13.20;99.90;;;;;;7398073;19;20473;-63
2022/05/23 01:42:03;;;;;;;6.57;2.65;;;13.50;99.90;;;;;;7396815;19;20485;-62
2022/05/23 01:44:33;;;;;;;7.18;2.75;;;13.40;99.90;;;;;;7396865;19;20465;-62
2022/05/23 01:47:08;;;;;;;4.78;3.00;;;13.40;99.90;;;;;;7394669;19;20021;-62
2022/05/23 01:49:37;;;;;;;5.50;2.88;;;13.10;99.90;;;;;;7397793;19;20010;-62
2022/05/23 01:52:07;;;;;;;6.47;2.70;;;13.30;99.90;;;;;;7399822;19;20042;-62
2022/05/23 01:54:36;;;;;;;5.47;3.08;;;13.30;99.90;;;;;;7394312;19;20022;-62
2022/05/23 01:57:09;;;;;;;4.35;2.58;;;13.40;99.90;;;;;;7397030;19;20089;-62
2022/05/23 02:02:21;;;;;;;8.43;2.88;;;13.40;99.90;;;;;;7392558;19;20018;-62
2022/05/23 02:04:50;;;;;;;6.95;2.75;;;13.20;99.90;;;;;;7397216;19;20024;-62
2022/05/23 02:07:19;;;;;;;6.07;2.95;;;13.30;99.90;;;;;;7397538;19;20108;-62
2022/05/23 02:09:48;;;;;;;4.85;2.80;;;13.30;99.90;;;;;;7399009;19;20082;-63
2022/05/23 02:12:20;;;;;;;6.00;2.90;;;13.20;99.90;;;;;;7397340;19;20089;-62
2022/05/23 02:14:51;;;;;;;5.32;2.85;;;13.20;99.90;;;;;;7382223;19;20046;-63
2022/05/23 02:17:20;;;;;;;6.25;2.72;;;13.30;99.90;;;;;;7373195;19;20046;-63
2022/05/23 02:19:49;;;;;;;6.70;3.10;;;13.20;99.90;;;;;;7396248;19;20006;-63
2022/05/23 02:22:18;;;;;;;5.45;2.55;;;13.20;99.90;;;;;;7396281;19;20042;-63
2022/05/23 02:24:47;;;;;;;5.95;2.70;;;13.20;99.90;;;;;;7398592;19;20015;-62
2022/05/23 02:27:19;;;;;;;6.97;2.72;;;13.00;99.90;;;;;;7398030;19;20074;-63
2022/05/23 02:29:48;;;;;;;5.63;2.80;;;13.10;99.90;;;;;;7396811;19;20026;-62
2022/05/23 02:32:17;;;;;;;6.13;2.70;;;13.20;99.90;;;;;;7397788;19;20023;-62
2022/05/23 02:34:46;;;;;;;5.47;2.88;;;13.20;99.90;;;;;;7395867;19;20054;-63
2022/05/23 02:37:15;;;;;;;6.53;2.72;;;13.10;99.90;;;;;;7395836;19;20006;-62
2022/05/23 02:39:44;;;;;;;6.88;3.22;;;13.10;99.90;;;;;;7394818;19;20111;-63
2022/05/23 02:42:14;;;;;;;6.10;2.97;;;13.10;99.90;;;;;;7395269;19;20019;-62
2022/05/23 02:44:46;;;;;;;4.75;2.70;;;13.10;99.90;;;;;;7396228;19;20022;-63
2022/05/23 02:47:15;;;;;;;7.47;2.88;;;13.10;99.90;;;;;;7394891;19;20070;-62
2022/05/23 02:49:44;;;;;;;8.05;3.65;;;13.10;99.90;;;;;;7395159;19;20039;-62
2022/05/23 02:52:13;;;;;;;6.32;3.15;;;13.10;99.90;;;;;;7394560;19;20042;-62
2022/05/23 02:54:41;;;;;;;3.92;2.70;;;13.10;99.90;;;;;;7396473;19;20022;-62
2022/05/23 02:57:10;;;;;;;7.13;2.92;;;13.00;99.90;;;;;;7396502;19;20367;-62
2022/05/23 02:59:39;;;;;;;5.30;2.72;;;13.20;99.90;;;;;;7395678;19;20011;-62
2022/05/23 03:04:52;;;;;;;5.53;2.47;;;13.10;99.90;;;;;;7394684;19;20478;-62
2022/05/23 03:07:21;;;;;;;5.63;3.10;;;13.00;99.90;;;;;;7396356;19;20015;-62
2022/05/23 03:09:50;;;;;;;6.72;3.00;;;13.20;99.90;;;;;;7397060;19;20370;-62
2022/05/23 03:12:19;;;;;;;5.55;2.90;;;13.00;99.90;;;;;;7392731;19;20090;-62
2022/05/23 03:14:48;;;;;;;5.25;2.92;;;12.90;99.90;;;;;;7394435;19;20074;-63
2022/05/23 03:17:19;;;;;;;5.18;2.75;;;13.00;99.90;;;;;;7394053;19;20014;-62
2022/05/23 03:19:49;;;;;;;5.60;3.25;;;12.90;99.90;;;;;;7394545;19;20022;-62
2022/05/23 03:27:40;;;;;;;5.35;3.17;;;13.00;99.90;;;;;;7393698;19;20015;-62
2022/05/23 03:30:11;;;;;;;5.80;3.42;;;13.10;99.90;;;;;;7393664;19;20014;-63
2022/05/23 03:32:42;;;;;;;8.10;3.10;;;13.10;99.90;;;;;;7394793;19;20014;-62
2022/05/23 03:35:12;;;;;;;9.45;3.78;;;13.30;99.90;;;;;;7392572;19;20025;-62
2022/05/23 03:37:40;;;;;;;6.00;3.30;;;13.00;99.90;;;;;;7394987;19;20425;-62
2022/05/23 03:40:11;;;;;;;5.53;3.30;;;13.00;99.90;;;;;;7397806;19;20046;-62
2022/05/23 03:42:41;;;;;;;8.70;3.63;;;13.00;99.90;;;;;;7392686;19;20391;-63
2022/05/23 03:45:12;;;;;;;6.18;3.40;;;13.00;99.90;;;;;;7396903;19;20031;-63
2022/05/23 03:47:44;;;;;;;6.88;3.70;;;13.10;99.90;;;;;;7393436;19;20123;-63
2022/05/23 03:50:16;;;;;;;4.50;2.90;;;13.00;99.90;;;;;;7393549;19;20347;-62
2022/05/23 03:52:45;;;;;;;5.30;3.35;;;13.00;99.90;;;;;;7393738;19;20086;-62
2022/05/23 03:55:14;;;;;;;6.15;3.35;;;13.10;99.90;;;;;;7393896;19;20006;-62
2022/05/23 03:57:43;;;;;;;5.50;3.30;;;13.20;99.90;;;;;;7398285;19;20032;-62
2022/05/23 04:00:14;;;;;;;10.23;3.15;;;13.20;99.90;;;;;;7403135;19;20493;-62
2022/05/23 04:02:46;;;;;;;5.85;3.22;;;13.00;99.90;;;;;;7400516;19;20018;-63
2022/05/23 04:05:17;;;;;;;6.40;3.53;;;13.10;99.90;;;;;;7400697;19;20018;-62
2022/05/23 04:07:47;;;;;;;6.07;3.25;;;13.20;99.90;;;;;;7401142;19;20011;-62
2022/05/23 04:10:18;;;;;;;4.85;3.40;;;13.20;99.90;;;;;;7402104;19;20090;-62
2022/05/23 04:12:48;;;;;;;8.98;3.58;;;13.20;99.90;;;;;;7400235;19;20362;-62
2022/05/23 04:15:17;;;;;;;6.35;3.58;;;13.20;99.90;;;;;;7399820;19;20018;-62
2022/05/23 04:17:49;;;;;;;6.88;3.40;;;13.20;99.90;;;;;;7400042;19;20011;-62
2022/05/23 04:20:18;;;;;;;6.32;3.50;;;13.20;99.90;;;;;;7400280;19;20323;-63
2022/05/23 04:22:47;;;;;;;7.72;3.40;;;13.10;99.90;;;;;;7399510;19;20062;-63
2022/05/23 04:25:16;;;;;;;7.50;3.75;;;13.10;99.90;;;;;;7400415;19;20351;-63
2022/05/23 04:27:46;;;;;;;6.18;3.78;;;13.20;99.90;;;;;;7400056;19;20017;-62
2022/05/23 04:30:15;;;;;;;8.82;3.92;;;13.50;99.90;;;;;;7403973;19;20031;-62
2022/05/23 04:35:29;;;;;;;6.00;3.92;;;13.20;99.90;;;;;;7399444;19;20376;-62
2022/05/23 04:37:58;;;;;;;6.93;3.50;;;13.20;99.90;;;;;;7399668;19;20469;-62
2022/05/23 04:40:29;;;;;;;9.23;3.80;;;13.40;99.90;;;;;;7400307;19;20085;-62
2022/05/23 04:42:59;;;;;;;5.95;3.70;;;13.40;99.90;;;;;;7399074;19;20458;-63
2022/05/23 04:45:28;;;;;;;6.80;3.95;;;13.40;99.90;;;;;;7400078;19;20033;-63
2022/05/23 04:50:41;;;;;;;7.28;3.55;;;13.40;99.90;;;;;;7398783;19;20019;-62
2022/05/23 04:53:10;;;;;;;7.68;3.88;;;13.50;99.90;;;;;;7398783;19;20568;-62
2022/05/23 04:55:41;;;;;;;6.80;4.00;;;13.50;99.90;;;;;;7399753;19;20078;-62
2022/05/23 04:58:11;;;;;;;6.30;4.50;;;13.50;99.90;;;;;;7399540;19;20014;-62
2022/05/23 05:00:42;;;;;;;7.35;4.07;;;13.50;99.90;;;;;;7398383;19;20010;-62
2022/05/23 05:03:12;;;;;;;8.65;4.25;;;13.50;99.90;;;;;;7398421;19;20488;-62
2022/05/23 05:05:43;;;;;;;6.70;4.65;;;13.60;99.90;;;;;;7398627;19;20078;-62
2022/05/23 05:08:12;;;;;;;11.20;4.78;;;13.70;99.90;;;;;;7400634;19;20007;-62
2022/05/23 05:10:41;;;;;;;9.65;4.82;;;13.70;99.90;;;;;;7398321;19;20017;-62
2022/05/23 05:13:11;;;;;;;7.00;4.13;;;14.60;99.90;;;;;;7396790;19;20018;-62
2022/05/23 05:15:40;;;;;;;9.25;5.03;;;13.60;99.90;;;;;;7397705;19;20036;-62
2022/05/23 05:18:10;;;;;;;7.20;4.60;;;13.60;99.90;;;;;;7397473;19;20026;-62
2022/05/23 05:20:39;;;;;;;5.60;4.25;;;13.70;99.90;;;;;;7398137;19;20017;-62
2022/05/23 05:23:11;;;;;;;8.00;4.80;;;13.60;99.90;;;;;;7397847;19;20395;-62
2022/05/23 05:25:43;;;;;;;8.50;4.65;;;13.70;99.90;;;;;;7395767;19;20014;-62
2022/05/23 05:28:12;;;;;;;8.00;5.05;;;13.50;99.90;;;;;;7398989;19;20010;-62
2022/05/23 05:30:46;;;;;;;8.05;4.95;;;13.80;99.90;;;;;;7397083;19;20010;-62
2022/05/23 05:33:19;;;;;;;8.27;4.78;;;13.90;99.90;;;;;;7397847;19;20018;-62
2022/05/23 05:35:53;;;;;;;6.50;4.65;;;13.90;99.90;;;;;;7401325;19;20031;-62
2022/05/23 05:38:31;;;;;;;8.73;5.28;;;14.00;99.90;;;;;;7400383;19;20017;-62
2022/05/23 05:41:05;;;;;;;7.10;4.95;;;14.00;99.90;;;;;;7400992;19;20011;-62
2022/05/23 05:43:39;;;;;;;10.80;5.38;;;14.10;99.90;;;;;;7399978;19;20029;-62
2022/05/23 05:46:15;;;;;;;8.13;5.50;;;14.10;99.90;;;;;;7396709;19;20021;-62
2022/05/23 05:48:46;;;;;;;10.10;5.32;;;14.20;99.90;;;;;;7401739;19;20015;-62
2022/05/23 05:51:18;;;;;;;9.82;5.43;;;14.10;99.90;;;;;;7397794;19;20018;-62
2022/05/23 05:53:51;;;;;;;9.15;5.85;;;14.10;99.90;;;;;;7394449;19;20022;-62
2022/05/23 05:56:21;;;;;;;9.05;5.97;;;14.10;99.90;;;;;;7394978;19;20357;-63
2022/05/23 05:58:51;;;;;;;9.07;5.90;;;14.10;99.90;;;;;;7396644;19;20023;-62
2022/05/23 06:01:20;;;;;;;10.60;5.72;;;14.20;99.90;;;;;;7393673;19;20019;-62
2022/05/23 06:03:49;;;;;;;9.55;5.75;;;14.00;99.90;;;;;;7397741;19;20376;-63
2022/05/23 06:11:43;;;;;;;12.82;5.80;;;14.10;99.90;;;;;;7394968;19;20018;-64
2022/05/23 06:14:12;;;;;;;9.13;6.00;;;14.20;99.90;;;;;;7396244;19;20018;-64
2022/05/23 06:16:41;;;;;;;8.32;6.22;;;14.30;99.90;;;;;;7397061;19;20383;-61
2022/05/23 06:19:09;;;;;;;7.60;5.47;;;14.20;99.90;;;;;;7399010;19;20338;-61
2022/05/23 06:21:38;;;;;;;8.20;5.63;;;14.20;99.90;;;;;;7392316;19;22378;-62
2022/05/23 06:24:12;;;;;;;11.98;6.15;;;14.20;99.90;;;;;;7392317;19;20011;-61
2022/05/23 06:26:41;;;;;;;9.10;5.68;;;14.30;99.90;;;;;;7396963;19;20129;-61
2022/05/23 06:29:10;;;;;;;9.18;5.75;;;14.30;99.90;;;;;;7397573;19;20014;-61
2022/05/23 06:31:40;;;;;;;10.23;6.07;;;14.30;99.90;;;;;;7394610;19;20015;-61
2022/05/23 06:34:09;;;;;;;9.18;6.22;;;14.20;99.90;;;;;;7397986;19;20018;-64
2022/05/23 06:36:38;;;;;;;7.82;5.50;;;14.40;99.90;;;;;;7397464;19;20014;-64
2022/05/23 06:39:09;;;;;;;8.63;6.15;;;14.40;99.90;;;;;;7396163;19;20025;-64
2022/05/23 06:41:38;;;;;;;7.25;5.68;;;14.30;99.90;;;;;;7398214;19;20014;-61
2022/05/23 06:44:08;;;;;;;10.00;6.07;;;14.40;99.90;;;;;;7394816;19;20021;-61
2022/05/23 06:46:38;;;;;;;9.40;6.25;;;14.60;99.90;;;;;;7397582;19;20023;-61
2022/05/23 06:49:06;;;;;;;8.43;5.95;;;14.60;99.90;;;;;;7397169;19;20007;-61
2022/05/23 06:51:36;;;;;;;9.98;6.03;;;14.60;99.90;;;;;;7396336;19;20021;-61
2022/05/23 06:54:05;;;;;;;11.15;6.30;;;14.50;99.90;;;;;;7394808;19;20377;-61
2022/05/23 06:56:37;;;;;;;11.40;6.95;;;14.70;99.90;;;;;;7395284;19;20085;-61
2022/05/23 06:59:07;;;;;;;10.60;6.55;;;14.80;99.90;;;;;;7394730;19;20011;-64
2022/05/23 07:01:36;;;;;;;9.20;6.32;;;14.90;99.90;;;;;;7394924;19;20438;-64
2022/05/23 07:04:05;;;;;;;11.45;6.78;;;14.80;99.90;;;;;;7396781;19;20021;-64
2022/05/23 07:14:41;;;;;;;9.45;6.40;;;15.30;99.90;;;;;;7394173;19;20014;-64
2022/05/23 07:17:10;;;;;;;10.25;5.90;;;15.40;99.90;;;;;;7395008;19;20018;-64
2022/05/23 07:19:40;;;;;;;10.15;6.10;;;15.40;99.90;;;;;;7397546;19;20014;-64
2022/05/23 07:22:09;;;;;;;8.82;6.30;;;15.40;99.90;;;;;;7397327;19;20416;-64
2022/05/23 07:24:38;;;;;;;10.88;5.90;;;15.50;99.90;;;;;;7393141;19;20027;-64
2022/05/23 07:27:12;;;;;;;10.52;5.95;;;15.60;99.90;;;;;;7396017;19;20014;-64
2022/05/23 07:29:41;;;;;;;9.32;6.15;;;15.70;99.90;;;;;;7394950;19;20018;-64
2022/05/23 07:32:11;;;;;;;9.38;5.93;;;15.70;99.90;;;;;;7393019;19;20430;-64
2022/05/23 07:34:41;;;;;;;10.48;5.80;;;15.80;99.90;;;;;;7392769;19;20497;-64
2022/05/23 07:37:11;;;;;;;7.70;6.25;;;15.60;99.90;;;;;;7395020;19;20035;-64
2022/05/23 07:39:41;;;;;;;9.80;6.15;;;15.70;99.90;;;;;;7393443;19;20034;-64
2022/05/23 07:42:13;;;;;;;11.48;6.30;;;15.80;99.90;;;;;;7397407;19;20498;-64
2022/05/23 07:44:43;;;;;;;7.80;6.13;;;15.70;99.90;;;;;;7393179;19;20010;-64
2022/05/23 07:47:12;;;;;;;10.50;6.22;;;15.70;99.90;;;;;;7394165;19;20081;-62
2022/05/23 07:49:41;;;;;;;12.45;6.60;;;15.90;99.90;;;;;;7393501;19;20014;-64
2022/05/23 07:52:10;;;;;;;11.38;6.57;;;15.90;99.90;;;;;;7393023;19;20042;-64
2022/05/23 08:02:47;;;;;;;12.80;6.63;;;16.10;99.90;;;;;;7392604;19;20011;-61
2022/05/23 08:05:16;;;;;;;11.77;6.78;;;16.30;99.90;;;;;;7391297;19;20010;-62
2022/05/23 08:07:45;;;;;;;11.02;6.53;;;16.70;99.90;;;;;;7394220;19;20010;-62
2022/05/23 08:10:15;;;;;;;7.93;5.85;;;16.30;99.90;;;;;;7393404;19;20010;-62
2022/05/23 08:12:51;;;;;;;10.18;6.35;;;16.40;99.90;;;;;;7392513;19;20018;-61
2022/05/23 08:15:20;;;;;;;10.27;6.45;;;16.40;99.90;;;;;;7393791;19;20085;-62
2022/05/23 08:17:49;;;;;;;10.15;5.80;;;16.60;99.90;;;;;;7391745;19;20014;-61
2022/05/23 08:20:19;;;;;;;8.82;6.00;;;16.60;99.90;;;;;;7392763;19;20022;-62
2022/05/23 08:22:54;;;;;;;8.18;6.22;;;16.70;99.90;;;;;;7391675;19;20015;-62
2022/05/23 08:25:23;;;;;;;8.82;6.15;;;16.70;99.90;;;;;;7390616;19;20011;-62
2022/05/23 08:27:55;;;;;;;9.52;5.72;;;16.80;99.90;;;;;;7394071;19;20011;-62
2022/05/23 08:30:25;;;;;;;10.35;6.13;;;16.90;99.90;;;;;;7391824;19;20351;-62
2022/05/23 08:32:54;;;;;;;9.57;6.18;;;16.90;99.90;;;;;;7393522;19;20022;-62
2022/05/23 08:35:24;;;;;;;11.30;6.35;;;17.00;99.90;;;;;;7391906;19;20405;-62
2022/05/23 08:37:54;;;;;;;13.13;6.90;;;17.10;99.90;;;;;;7392692;19;20448;-62
2022/05/23 08:40:40;;;;;;;8.63;5.88;;;17.30;99.90;;;;;;7392027;19;20527;-62
2022/05/23 08:43:14;;;;;;;9.80;6.07;;;17.10;99.90;;;;;;7391144;19;20022;-62
2022/05/23 08:45:45;;;;;;;11.68;6.55;;;17.30;99.90;;;;;;7395455;19;20070;-62
2022/05/23 08:48:20;;;;;;;10.13;6.18;;;17.30;99.90;;;;;;7400018;19;20035;-62
2022/05/23 08:50:59;;;;;;;10.80;6.47;;;17.30;99.90;;;;;;7399148;19;20011;-62
2022/05/23 08:53:33;;;;;;;8.85;5.93;;;17.30;99.90;;;;;;7400739;19;20021;-62
2022/05/23 08:56:07;;;;;;;10.20;6.35;;;17.50;99.90;;;;;;7399079;19;20357;-62
2022/05/23 08:58:44;;;;;;;8.27;5.75;;;17.40;99.90;;;;;;7398289;19;20007;-62
2022/05/23 09:01:16;;;;;;;9.73;5.75;;;17.60;99.90;;;;;;7399406;19;20371;-63
2022/05/23 09:03:51;;;;;;;12.57;6.32;;;17.80;99.90;;;;;;7400093;19;20085;-65
2022/05/23 09:06:26;;;;;;;9.13;5.60;;;17.70;99.90;;;;;;7397510;19;20028;-63
2022/05/23 09:08:57;;;;;;;8.90;5.47;;;17.70;99.90;;;;;;7398664;19;20078;-63
2022/05/23 09:11:33;;;;;;;9.50;5.72;;;18.00;99.90;;;;;;7398691;19;20362;-63
2022/05/23 09:14:06;;;;;;;7.30;5.72;;;17.90;99.90;;;;;;7400884;19;20022;-63
2022/05/23 09:16:40;;;;;;;9.57;5.32;;;18.10;99.90;;;;;;7398038;19;20014;-63
2022/05/23 09:19:16;;;;;;;10.88;6.05;;;18.10;99.90;;;;;;7397754;19;20042;-63
2022/05/23 09:24:27;;;;;;;11.38;6.43;;;18.30;99.90;;;;;;7400466;19;20015;-63
2022/05/23 09:27:01;;;;;;;10.70;6.03;;;18.30;99.90;;;;;;7398251;19;20006;-64
2022/05/23 09:29:33;;;;;;;12.30;5.90;;;18.50;99.90;;;;;;7398510;19;20128;-64
2022/05/23 09:32:09;;;;;;;8.80;6.40;;;18.70;99.90;;;;;;7399754;19;20023;-63
2022/05/23 09:34:46;;;;;;;7.97;5.28;;;18.70;99.90;;;;;;7401193;19;20019;-64
2022/05/23 09:37:25;;;;;;;11.85;6.20;;;18.70;99.90;;;;;;7397669;19;20006;-63
2022/05/23 09:39:58;;;;;;;8.73;5.18;;;18.90;99.90;;;;;;7396602;19;20367;-64
2022/05/23 09:48:12;;;;;;;9.48;5.15;;;19.20;99.90;;;;;;7395984;19;20018;-64
2022/05/23 09:50:44;;;;;;;10.18;5.50;;;19.10;99.90;;;;;;7400138;19;20027;-64
2022/05/23 09:53:20;;;;;;;9.68;5.55;;;19.30;99.90;;;;;;7396984;19;20019;-64
2022/05/23 09:55:49;;;;;;;9.80;5.78;;;19.30;99.90;;;;;;7398289;19;20022;-63
2022/05/23 09:58:33;;;;;;;8.68;5.30;;;19.30;99.90;;;;;;7400043;19;20455;-64
2022/05/23 10:01:08;;;;;;;9.02;5.38;;;19.60;99.90;;;;;;7397526;19;20014;-64
2022/05/23 10:03:37;;;;;;;8.82;5.13;;;19.50;99.90;;;;;;7398494;19;20354;-63
2022/05/23 10:06:10;;;;;;;10.25;5.20;;;19.80;99.90;;;;;;7395803;19;20022;-64
2022/05/23 10:08:41;;;;;;;8.07;5.00;;;19.80;99.90;;;;;;7396548;19;20070;-64
2022/05/23 10:11:22;;;;;;;10.32;5.90;;;19.80;99.90;;;;;;7401461;19;20022;-64
2022/05/23 10:13:56;;;;;;;11.40;5.22;;;19.80;99.90;;;;;;7398355;19;20035;-64
2022/05/23 10:16:32;;;;;;;8.13;5.07;;;19.90;99.90;;;;;;7391211;19;20517;-63
2022/05/23 10:19:03;;;;;;;8.88;5.28;;;20.00;99.90;;;;;;7394700;19;20007;-63
2022/05/23 10:21:35;;;;;;;7.78;5.20;;;20.10;99.90;;;;;;7392821;19;20023;-64
2022/05/23 10:24:09;;;;;;;7.55;5.10;;;20.20;99.90;;;;;;7396037;19;20022;-64
2022/05/23 10:26:45;;;;;;;10.75;4.70;;;20.30;99.90;;;;;;7394298;19;20343;-63
2022/05/23 10:29:22;;;;;;;9.93;4.57;;;20.60;99.90;;;;;;7392931;19;20172;-65
2022/05/23 10:32:01;;;;;;;7.07;4.43;;;20.50;99.90;;;;;;7392007;19;20014;-64
2022/05/23 10:34:51;;;;;;;;;;;20.70;99.90;;;;;;7428715;19;20722;-64
2022/05/23 10:37:23;;;;;;;5.55;3.50;;;20.70;99.90;;;;;;7429151;19;20261;-64
2022/05/23 10:42:41;;;;;;;6.60;3.60;;;21.10;99.80;;;;;;7429608;19;20064;-63
2022/05/23 10:45:23;;;;;;;7.03;3.75;;;21.20;99.70;;;;;;7428507;19;20102;-64
2022/05/23 10:48:20;;;;;;;7.57;3.53;;;21.30;98.90;;;;;;7425872;19;20017;-64
2022/05/23 10:50:57;;;;;;;7.55;3.30;;;21.40;98.10;;;;;;7431211;19;20010;-63
2022/05/23 10:53:40;;;;;;;7.13;3.53;;;21.50;98.80;;;;;;7426766;19;20043;-63
2022/05/23 10:56:21;;;;;;;5.40;3.20;;;21.90;97.60;;;;;;7432397;19;20014;-63
2022/05/23 10:58:55;;;;;;;7.32;3.35;;;21.80;97.50;;;;;;7428178;19;20007;-64
2022/05/23 11:01:42;;;;;;;7.03;3.70;;;21.80;97.80;;;;;;7427416;19;20086;-64
2022/05/23 11:04:27;;;;;;;7.65;4.22;;;22.00;96.70;;;;;;7427478;19;20042;-66
2022/05/23 11:07:17;;;;;;;6.80;3.77;;;21.90;97.10;;;;;;7429529;19;20010;-64
2022/05/23 11:09:57;;;;;;;5.53;3.35;;;22.00;97.30;;;;;;7429070;19;20024;-64
2022/05/23 11:12:33;;;;;;;10.10;4.43;;;22.00;96.70;;;;;;7427316;19;20011;-64
2022/05/23 11:15:16;;;;;;;7.35;3.38;;;22.00;96.90;;;;;;7424035;19;20006;-65
2022/05/23 11:17:51;;;;;;;4.43;3.13;;;22.00;96.30;;;;;;7428419;19;20018;-63
2022/05/23 11:20:26;;;;;;;5.60;3.25;;;21.80;96.10;;;;;;7429621;19;20094;-64
2022/05/23 11:23:02;;;;;;;5.68;3.30;;;21.90;96.60;;;;;;7428132;19;20034;-63
2022/05/23 11:25:33;;;;;;;7.47;3.63;;;21.80;96.40;;;;;;7424094;19;20070;-64
2022/05/23 11:33:46;;;;;;;5.20;3.20;;;22.10;96.40;;;;;;7424612;19;20047;-63
2022/05/23 11:36:34;;;;;;;6.65;3.35;;;22.10;95.70;;;;;;7429719;19;20025;-63
2022/05/23 11:39:07;;;;;;;7.72;3.20;;;22.30;96.10;;;;;;7430864;19;20010;-64
2022/05/23 11:41:42;;;;;;;4.75;3.13;;;22.30;96.30;;;;;;7428958;19;20556;-64
2022/05/23 11:44:34;;;;;;;7.55;2.95;;;22.40;96.00;;;;;;7420988;19;20014;-63
2022/05/23 11:47:16;;;;;;;5.13;3.00;;;22.40;96.40;;;;;;7395737;19;20029;-63
2022/05/23 11:49:48;;;;;;;7.30;3.10;;;22.50;95.20;;;;;;7399998;19;20011;-63
2022/05/23 11:52:27;;;;;;;8.63;2.95;;;22.70;95.40;;;;;;7401286;19;20021;-64
2022/05/23 11:54:59;;;;;;;4.50;2.40;;;22.90;93.80;;;;;;7395749;19;20022;-64
2022/05/23 11:57:40;;;;;;;7.20;2.72;;;22.90;93.10;;;;;;7397690;19;20014;-64
2022/05/23 12:00:30;;;;;;;5.70;2.55;;;23.10;92.60;;;;;;7399297;19;20019;-64
2022/05/23 12:03:11;;;;;;;5.55;2.70;;;23.20;91.50;;;;;;7398046;19;20018;-64
2022/05/23 12:05:41;;;;;;;4.35;2.58;;;23.30;91.50;;;;;;7400130;19;20042;-64
2022/05/23 12:08:29;;;;;;;5.47;3.08;;;23.20;92.80;;;;;;7398983;19;20544;-64
2022/05/23 12:11:05;;;;;;;5.45;2.90;;;23.20;92.60;;;;;;7397800;19;20347;-64
2022/05/23 12:13:48;;;;;;;5.65;3.08;;;23.40;92.70;;;;;;7397053;19;20022;-64
2022/05/23 12:16:40;;;;;;;6.85;2.90;;;23.40;93.70;;;;;;7399464;19;20021;-64
2022/05/23 12:19:27;;;;;;;5.22;2.80;;;23.70;93.80;;;;;;7397277;19;20089;-64
2022/05/23 12:21:56;;;;;;;3.55;2.83;;;23.90;91.70;;;;;;7397016;19;20066;-64
2022/05/23 12:24:35;;;;;;;7.10;2.97;;;24.00;92.40;;;;;;7395962;19;20022;-64
2022/05/23 12:27:09;;;;;;;3.10;2.60;;;24.30;92.10;;;;;;7397110;19;20011;-64
2022/05/23 12:29:40;;;;;;;4.07;2.90;;;24.30;91.80;;;;;;7399541;19;20031;-64
2022/05/23 12:32:25;;;;;;;6.15;2.80;;;24.30;91.30;;;;;;7399156;19;20010;-64
2022/05/23 12:34:59;;;;;;;5.90;3.13;;;24.70;90.70;;;;;;7394552;19;20481;-64
2022/05/23 12:37:32;;;;;;;5.43;2.60;;;24.80;90.30;;;;;;7399005;19;20015;-64
2022/05/23 12:40:20;;;;;;;4.38;2.65;;;24.90;89.90;;;;;;7398718;19;20010;-64
2022/05/23 12:43:15;;;;;;;6.72;2.80;;;24.90;90.00;;;;;;7396363;19;20018;-64
2022/05/23 12:46:18;;;;;;;4.80;2.80;;;25.00;88.50;;;;;;7397903;19;20353;-64
2022/05/23 12:49:15;;;;;;;5.65;2.75;;;24.90;84.10;;;;;;7396296;19;20349;-64
2022/05/23 12:51:54;;;;;;;4.45;2.55;;;25.10;84.30;;;;;;7395352;19;20033;-64
2022/05/23 12:54:33;;;;;;;7.60;3.00;;;25.30;85.30;;;;;;7397524;19;20018;-64
2022/05/23 12:57:28;;;;;;;5.72;3.15;;;25.50;84.60;;;;;;7392285;19;20017;-64
2022/05/23 13:00:04;;;;;;;4.70;2.60;;;25.40;81.70;;;;;;7395926;19;20083;-64
2022/05/23 13:02:35;;;;;;;;;;;25.30;84.50;;;;;;7397657;19;20046;-64
2022/05/23 13:05:09;;;;;;;6.57;2.40;;;25.10;80.50;;;;;;7397674;19;20288;-64
2022/05/23 13:07:49;;;;;;;6.72;2.60;;;24.90;84.50;;;;;;7396776;19;20014;-64
2022/05/23 13:10:24;;;;;;;4.47;2.58;;;24.80;84.10;;;;;;7397274;19;20018;-64
2022/05/23 13:13:00;;;;;;;4.57;2.90;;;24.90;86.10;;;;;;7396756;19;20022;-64
2022/05/23 13:15:34;;;;;;;6.18;2.70;;;24.70;85.50;;;;;;7394201;19;20010;-64
2022/05/23 13:23:33;;;;;;;5.65;3.10;;;23.90;82.40;;;;;;7392381;19;19983;-64
2022/05/23 13:26:10;;;;;;;7.20;3.13;;;23.70;85.30;;;;;;7295449;19;20038;-64
2022/05/23 13:28:42;;;;;;;4.60;2.60;;;23.50;85.60;;;;;;7393391;19;20019;-64
2022/05/23 13:31:30;;;;;;;5.00;2.97;;;23.70;88.60;;;;;;7395321;19;20015;-71
2022/05/23 13:34:00;;;;;;;5.30;2.88;;;24.00;86.80;;;;;;7396436;19;20010;-64
2022/05/23 13:36:42;;;;;;;4.22;2.55;;;24.10;86.20;;;;;;7390985;19;20411;-64
2022/05/23 13:39:15;;;;;;;3.95;2.90;;;24.30;89.10;;;;;;7395853;19;20025;-64
2022/05/23 13:41:46;;;;;;;3.80;2.60;;;24.40;88.20;;;;;;7391023;19;20010;-64
2022/05/23 13:44:23;;;;;;;4.88;3.05;;;24.00;85.70;;;;;;7396841;19;20421;-64
2022/05/23 13:47:02;;;;;;;4.57;2.60;;;24.10;86.10;;;;;;7390847;19;20034;-64
2022/05/23 13:49:35;;;;;;;5.22;2.70;;;23.60;85.10;;;;;;7394949;19;20059;-64
2022/05/23 13:52:08;;;;;;;5.68;2.70;;;23.60;85.40;;;;;;7393514;19;20054;-64
2022/05/23 13:54:40;;;;;;;3.95;2.53;;;23.70;86.00;;;;;;7391359;19;20010;-64
2022/05/23 13:57:13;;;;;;;5.18;2.90;;;23.50;88.60;;;;;;7392962;19;20046;-64
2022/05/23 13:59:46;;;;;;;6.20;2.97;;;23.40;90.30;;;;;;7392324;19;20051;-64
2022/05/23 14:02:22;;;;;;;5.28;3.20;;;23.20;91.00;;;;;;7393809;19;20018;-64
2022/05/23 14:04:52;;;;;;;6.35;2.95;;;23.30;91.90;;;;;;7394927;19;20018;-64
2022/05/23 14:07:26;;;;;;;4.38;2.90;;;23.10;91.80;;;;;;7392799;19;20347;-65
2022/05/23 14:09:57;;;;;;;6.03;3.30;;;23.10;92.20;;;;;;7392245;19;20018;-64
2022/05/23 14:12:29;;;;;;;5.00;3.03;;;23.00;93.00;;;;;;7394591;19;20348;-64
2022/05/23 14:15:00;;;;;;;3.85;2.75;;;23.00;93.00;;;;;;7393330;19;20543;-64
2022/05/23 14:17:36;;;;;;;3.92;2.83;;;22.80;93.40;;;;;;7392146;19;20035;-64
2022/05/23 14:20:22;;;;;;;5.20;2.90;;;22.80;93.80;;;;;;7391980;19;20021;-64